createdAt,value
2022-12-20T00:01:31.907Z,4.68
2022-12-20T00:03:35.258Z,4.68
2022-12-20T00:05:42.629Z,4.68
2022-12-20T00:07:45.687Z,4.67
2022-12-20T00:09:48.727Z,4.66
2022-12-20T00:11:51.899Z,4.65
2022-12-20T00:13:55.043Z,4.66
2022-12-20T00:16:06.344Z,4.65
2022-12-20T00:18:10.786Z,4.63
2022-12-20T00:20:14.250Z,4.63
2022-12-20T00:22:17.324Z,4.62
2022-12-20T00:24:25.800Z,4.63
2022-12-20T00:26:31.540Z,4.64
2022-12-20T00:28:44.618Z,4.63
2022-12-20T00:30:55.122Z,4.61
2022-12-20T00:32:58.291Z,4.60
2022-12-20T00:35:02.689Z,4.62
2022-12-20T00:37:07.667Z,4.61
2022-12-20T00:39:11.494Z,4.62
2022-12-20T00:41:16.163Z,4.62
2022-12-20T00:43:19.164Z,4.60
2022-12-20T00:45:23.113Z,4.58
2022-12-20T00:47:26.203Z,4.59
2022-12-20T00:49:29.221Z,4.60
2022-12-20T00:51:33.766Z,4.60
2022-12-20T00:53:37.068Z,4.60
2022-12-20T00:55:42.499Z,4.59
2022-12-20T00:57:45.546Z,4.59
2022-12-20T00:59:49.154Z,4.58
2022-12-20T01:01:52.624Z,4.58
2022-12-20T01:03:56.389Z,4.60
2022-12-20T01:06:01.331Z,4.60
2022-12-20T01:08:06.452Z,4.62
2022-12-20T01:10:11.731Z,4.66
2022-12-20T01:12:20.253Z,4.69
2022-12-20T01:14:23.336Z,4.69
2022-12-20T01:16:30.079Z,4.68
2022-12-20T01:18:35.031Z,4.68
2022-12-20T01:20:38.171Z,4.68
2022-12-20T01:22:47.337Z,4.62
2022-12-20T01:24:52.418Z,4.61
2022-12-20T01:26:55.537Z,4.62
2022-12-20T01:29:01.816Z,4.64
2022-12-20T01:31:08.460Z,4.68
2022-12-20T01:33:11.476Z,4.69
2022-12-20T01:35:14.608Z,4.71
2022-12-20T01:37:18.933Z,4.71
2022-12-20T01:39:22.165Z,4.72
2022-12-20T01:41:27.187Z,4.69
2022-12-20T01:43:47.737Z,4.69
2022-12-20T01:45:50.868Z,4.70
2022-12-20T01:47:54.019Z,4.70
2022-12-20T01:49:57.863Z,4.69
2022-12-20T01:52:04.645Z,4.70
2022-12-20T01:54:11.789Z,4.71
2022-12-20T01:56:14.782Z,4.70
2022-12-20T01:58:20.457Z,4.72
2022-12-20T02:00:24.154Z,4.72
2022-12-20T02:02:28.104Z,4.72
2022-12-20T02:04:31.218Z,4.71
2022-12-20T02:06:34.603Z,4.69
2022-12-20T02:08:37.659Z,4.69
2022-12-20T02:10:51.377Z,4.67
2022-12-20T02:13:00.495Z,4.67
2022-12-20T02:15:16.116Z,4.68
2022-12-20T02:17:25.302Z,4.67
2022-12-20T02:19:55.238Z,4.68
2022-12-20T02:22:03.790Z,4.66
2022-12-20T02:24:38.568Z,4.65
2022-12-20T02:27:08.476Z,4.64
2022-12-20T02:29:23.276Z,4.60
2022-12-20T02:31:37.715Z,4.54
2022-12-20T02:33:43.315Z,4.52
2022-12-20T02:35:46.387Z,4.51
2022-12-20T02:37:55.464Z,4.51
2022-12-20T02:39:58.564Z,4.53
2022-12-20T02:42:05.282Z,4.53
2022-12-20T02:44:28.233Z,4.56
2022-12-20T02:46:35.308Z,4.58
2022-12-20T02:48:38.848Z,4.59
2022-12-20T02:50:46.032Z,4.59
2022-12-20T02:52:49.543Z,4.58
2022-12-20T02:54:54.085Z,4.56
2022-12-20T02:56:58.778Z,4.58
2022-12-20T02:59:05.154Z,4.58
2022-12-20T03:01:11.430Z,4.58
2022-12-20T03:03:25.799Z,4.58
2022-12-20T03:05:29.252Z,4.57
2022-12-20T03:07:35.233Z,4.56
2022-12-20T03:09:39.939Z,4.55
2022-12-20T03:11:43.027Z,4.54
2022-12-20T03:13:46.104Z,4.52
2022-12-20T03:15:49.223Z,4.50
2022-12-20T03:17:52.196Z,4.50
2022-12-20T03:19:58.232Z,4.49
2022-12-20T03:22:01.412Z,4.49
2022-12-20T03:24:07.560Z,4.49
2022-12-20T03:26:10.521Z,4.49
2022-12-20T03:28:22.926Z,4.49
2022-12-20T03:30:26.035Z,4.51
2022-12-20T03:32:29.051Z,4.51
2022-12-20T03:34:33.037Z,4.51
2022-12-20T03:36:38.465Z,4.51
2022-12-20T03:38:42.300Z,4.52
2022-12-20T03:40:47.061Z,4.52
2022-12-20T03:42:54.488Z,4.55
2022-12-20T03:44:57.573Z,4.55
2022-12-20T03:47:03.706Z,4.55
2022-12-20T03:49:07.145Z,4.55
2022-12-20T03:51:17.897Z,4.55
2022-12-20T03:53:22.736Z,4.54
2022-12-20T03:55:27.196Z,4.53
2022-12-20T03:57:30.498Z,4.55
2022-12-20T03:59:35.550Z,4.55
2022-12-20T04:01:40.032Z,4.56
2022-12-20T04:03:43.362Z,4.56
2022-12-20T04:05:46.789Z,4.56
2022-12-20T04:07:50.111Z,4.56
2022-12-20T04:09:54.501Z,4.59
2022-12-20T04:11:57.567Z,4.61
2022-12-20T04:14:00.589Z,4.62
2022-12-20T04:16:04.112Z,4.62
2022-12-20T04:18:09.067Z,4.64
2022-12-20T04:20:20.926Z,4.65
2022-12-20T04:22:37.649Z,4.65
2022-12-20T04:24:42.074Z,4.66
2022-12-20T04:27:01.671Z,4.67
2022-12-20T04:29:05.350Z,4.67
2022-12-20T04:31:09.094Z,4.69
2022-12-20T04:33:13.465Z,4.70
2022-12-20T04:35:17.674Z,4.71
2022-12-20T04:37:20.697Z,4.73
2022-12-20T04:39:28.460Z,4.77
2022-12-20T04:41:50.156Z,4.77
2022-12-20T04:43:55.645Z,4.80
2022-12-20T04:46:00.267Z,4.82
2022-12-20T04:48:28.695Z,4.84
2022-12-20T04:50:27.604Z,4.84
2022-12-20T04:52:48.521Z,4.86
2022-12-20T04:54:52.619Z,4.85
2022-12-20T04:57:01.585Z,4.85
2022-12-20T04:59:06.613Z,4.86
2022-12-20T05:01:10.410Z,4.86
2022-12-20T05:03:21.424Z,4.85
2022-12-20T05:05:24.556Z,4.83
2022-12-20T05:07:30.270Z,4.85
2022-12-20T05:09:33.607Z,4.86
2022-12-20T05:11:36.754Z,4.87
2022-12-20T05:13:44.023Z,4.90
2022-12-20T05:15:52.034Z,4.88
2022-12-20T05:17:59.647Z,4.88
2022-12-20T05:20:08.780Z,4.88
2022-12-20T05:22:30.605Z,4.90
2022-12-20T05:24:59.751Z,4.92
2022-12-20T05:27:09.103Z,4.92
2022-12-20T05:29:12.295Z,4.92
2022-12-20T05:31:16.806Z,4.92
2022-12-20T05:33:20.015Z,4.91
2022-12-20T05:35:23.119Z,4.92
2022-12-20T05:37:32.352Z,4.94
2022-12-20T05:39:43.087Z,4.94
2022-12-20T05:41:53.707Z,4.94
2022-12-20T05:43:59.137Z,4.96
2022-12-20T05:46:03.413Z,4.97
2022-12-20T05:48:17.567Z,4.96
2022-12-20T05:50:20.852Z,4.97
2022-12-20T05:52:55.821Z,4.96
2022-12-20T05:55:03.766Z,4.97
2022-12-20T05:57:06.938Z,4.97
2022-12-20T05:59:17.735Z,4.99
2022-12-20T06:01:22.924Z,5.01
2022-12-20T06:03:31.111Z,5.01
2022-12-20T06:05:35.320Z,5.03
2022-12-20T06:07:38.562Z,5.05
2022-12-20T06:09:41.647Z,5.05
2022-12-20T06:11:49.159Z,5.06
2022-12-20T06:13:52.215Z,5.07
2022-12-20T06:15:55.786Z,5.09
2022-12-20T06:17:59.178Z,5.08
2022-12-20T06:20:04.072Z,5.10
2022-12-20T06:22:07.068Z,5.12
2022-12-20T06:24:25.245Z,5.13
2022-12-20T06:26:35.965Z,5.12
2022-12-20T06:28:42.813Z,5.13
2022-12-20T06:31:01.384Z,5.13
2022-12-20T06:33:15.509Z,5.14
2022-12-20T06:35:21.784Z,5.15
2022-12-20T06:37:25.403Z,5.17
2022-12-20T06:39:28.643Z,5.19
2022-12-20T06:41:38.962Z,5.19
2022-12-20T06:43:42.139Z,5.20
2022-12-20T06:45:45.568Z,5.21
2022-12-20T06:47:48.963Z,5.22
2022-12-20T06:49:53.130Z,5.24
2022-12-20T06:52:00.088Z,5.23
2022-12-20T06:54:19.946Z,5.24
2022-12-20T06:56:41.925Z,5.24
2022-12-20T06:58:47.587Z,5.27
2022-12-20T07:00:50.780Z,5.26
2022-12-20T07:02:54.765Z,5.27
2022-12-20T07:04:57.989Z,5.29
2022-12-20T07:07:02.365Z,5.28
2022-12-20T07:09:05.538Z,5.29
2022-12-20T07:11:09.223Z,5.28
2022-12-20T07:13:12.384Z,5.28
2022-12-20T07:15:15.545Z,5.28
2022-12-20T07:17:18.742Z,5.29
2022-12-20T07:19:22.743Z,5.28
2022-12-20T07:21:26.126Z,5.28
2022-12-20T07:23:30.834Z,5.26
2022-12-20T07:25:33.889Z,5.27
2022-12-20T07:27:37.033Z,5.28
2022-12-20T07:29:40.636Z,5.30
2022-12-20T07:31:43.980Z,5.31
2022-12-20T07:33:47.021Z,5.31
2022-12-20T07:35:54.472Z,5.34
2022-12-20T07:37:57.766Z,5.34
2022-12-20T07:40:02.126Z,5.37
2022-12-20T07:42:05.623Z,5.39
2022-12-20T07:44:18.119Z,5.38
2022-12-20T07:46:22.143Z,5.38
2022-12-20T07:48:25.719Z,5.37
2022-12-20T07:50:29.211Z,5.41
2022-12-20T07:52:34.389Z,5.41
2022-12-20T07:54:39.691Z,5.42
2022-12-20T07:56:47.090Z,5.42
2022-12-20T07:58:52.017Z,5.44
2022-12-20T08:00:55.500Z,5.47
2022-12-20T08:03:03.337Z,5.48
2022-12-20T08:05:08.966Z,5.53
2022-12-20T08:07:12.501Z,5.54
2022-12-20T08:09:16.177Z,5.57
2022-12-20T08:11:19.655Z,5.59
2022-12-20T08:13:24.076Z,5.63
2022-12-20T08:15:27.493Z,5.68
2022-12-20T08:17:30.554Z,5.70
2022-12-20T08:19:33.568Z,5.72
2022-12-20T08:21:36.663Z,5.72
2022-12-20T08:23:39.961Z,5.75
2022-12-20T08:25:43.002Z,5.75
2022-12-20T08:27:46.175Z,5.76
2022-12-20T08:29:50.901Z,5.78
2022-12-20T08:31:57.208Z,5.80
2022-12-20T08:34:00.359Z,5.82
2022-12-20T08:36:05.360Z,5.84
2022-12-20T08:38:08.573Z,5.86
2022-12-20T08:40:14.823Z,5.87
2022-12-20T08:42:17.767Z,5.90
2022-12-20T08:44:23.357Z,5.92
2022-12-20T08:46:27.816Z,5.91
2022-12-20T08:48:31.627Z,5.91
2022-12-20T08:50:36.253Z,5.93
2022-12-20T08:52:40.144Z,5.96
2022-12-20T08:54:43.187Z,5.96
2022-12-20T08:56:46.220Z,5.96
2022-12-20T08:58:49.331Z,5.96
2022-12-20T09:00:52.422Z,5.96
2022-12-20T09:02:56.898Z,5.95
2022-12-20T09:05:00.153Z,5.96
2022-12-20T09:07:03.443Z,5.98
2022-12-20T09:09:07.092Z,5.99
2022-12-20T09:11:12.328Z,6.02
2022-12-20T09:13:15.418Z,6.02
2022-12-20T09:15:18.649Z,6.05
2022-12-20T09:17:21.762Z,6.06
2022-12-20T09:19:26.330Z,6.09
2022-12-20T09:21:29.581Z,6.13
2022-12-20T09:23:33.734Z,6.16
2022-12-20T09:25:38.423Z,6.18
2022-12-20T09:27:41.488Z,6.17
2022-12-20T09:29:44.476Z,6.18
2022-12-20T09:31:47.555Z,6.20
2022-12-20T09:33:51.039Z,6.23
2022-12-20T09:35:55.963Z,6.26
2022-12-20T09:37:59.150Z,6.30
2022-12-20T09:40:02.123Z,6.34
2022-12-20T09:42:09.253Z,6.37
2022-12-20T09:44:17.430Z,6.42
2022-12-20T09:46:20.938Z,6.47
2022-12-20T09:48:26.786Z,6.52
2022-12-20T09:50:41.174Z,6.57
2022-12-20T09:52:57.016Z,6.60
2022-12-20T09:55:09.659Z,6.58
2022-12-20T09:57:20.574Z,6.60
2022-12-20T09:59:47.528Z,6.63
2022-12-20T10:01:53.163Z,6.64
2022-12-20T10:03:58.349Z,6.65
2022-12-20T10:06:07.840Z,6.66
2022-12-20T10:08:18.613Z,6.68
2022-12-20T10:10:40.538Z,6.68
2022-12-20T10:12:47.679Z,6.72
2022-12-20T10:15:02.511Z,6.74
2022-12-20T10:17:09.627Z,6.75
2022-12-20T10:19:34.862Z,6.74
2022-12-20T10:21:41.809Z,6.78
2022-12-20T10:23:57.669Z,6.82
2022-12-20T10:26:01.087Z,6.86
2022-12-20T10:28:06.813Z,6.90
2022-12-20T10:30:14.407Z,6.91
2022-12-20T10:32:20.049Z,6.94
2022-12-20T10:34:24.444Z,6.97
2022-12-20T10:36:29.688Z,7.00
2022-12-20T10:38:46.512Z,7.04
2022-12-20T10:41:20.789Z,7.09
2022-12-20T10:43:25.075Z,7.13
2022-12-20T10:45:38.225Z,7.16
2022-12-20T10:47:43.412Z,7.19
2022-12-20T10:49:46.495Z,7.23
2022-12-20T10:51:53.326Z,7.27
2022-12-20T10:54:01.130Z,7.31
2022-12-20T10:56:20.211Z,7.36
2022-12-20T10:58:33.674Z,7.40
2022-12-20T11:00:37.714Z,7.43
2022-12-20T11:02:43.979Z,7.46
2022-12-20T11:04:58.757Z,7.47
2022-12-20T11:07:03.248Z,7.48
2022-12-20T11:09:37.951Z,7.47
2022-12-20T11:11:41.337Z,7.47
2022-12-20T11:13:44.888Z,7.49
2022-12-20T11:15:50.036Z,7.49
2022-12-20T11:17:55.940Z,7.51
2022-12-20T11:20:22.870Z,7.55
2022-12-20T11:22:35.806Z,7.56
2022-12-20T11:24:46.180Z,7.58
2022-12-20T11:27:02.040Z,7.61
2022-12-20T11:29:17.757Z,7.64
2022-12-20T11:31:27.910Z,7.63
2022-12-20T11:33:59.350Z,7.65
2022-12-20T11:36:04.536Z,7.68
2022-12-20T11:38:11.483Z,7.70
2022-12-20T11:40:27.256Z,7.73
2022-12-20T11:42:39.302Z,7.76
2022-12-20T11:45:03.472Z,7.77
2022-12-20T11:47:29.327Z,7.80
2022-12-20T11:50:06.516Z,7.83
2022-12-20T11:52:17.908Z,7.84
2022-12-20T11:54:25.502Z,7.87
2022-12-20T11:56:38.671Z,7.89
2022-12-20T11:58:52.062Z,7.93
2022-12-20T12:00:57.422Z,7.96
2022-12-20T12:03:05.235Z,7.96
2022-12-20T12:05:18.237Z,7.96
2022-12-20T12:07:24.760Z,7.97
2022-12-20T12:09:32.968Z,7.98
2022-12-20T12:12:05.962Z,8.00
2022-12-20T12:14:05.188Z,8.02
2022-12-20T12:16:11.726Z,8.06
2022-12-20T12:18:19.037Z,8.09
2022-12-20T12:20:26.991Z,8.12
2022-12-20T12:22:40.042Z,8.12
2022-12-20T12:24:45.219Z,8.11
2022-12-20T12:26:49.736Z,8.12
2022-12-20T12:28:56.558Z,8.12
2022-12-20T12:31:04.659Z,8.14
2022-12-20T12:33:12.185Z,8.17
2022-12-20T12:35:39.712Z,8.19
2022-12-20T12:38:03.919Z,8.16
2022-12-20T12:40:35.406Z,8.09
2022-12-20T12:43:14.491Z,8.09
2022-12-20T12:45:22.634Z,8.07
2022-12-20T12:47:30.996Z,8.07
2022-12-20T12:49:34.693Z,8.08
2022-12-20T12:51:39.009Z,8.09
2022-12-20T12:53:44.652Z,8.13
2022-12-20T12:55:49.499Z,8.18
2022-12-20T12:57:59.037Z,8.22
2022-12-20T13:00:02.223Z,8.27
2022-12-20T13:02:25.401Z,8.32
2022-12-20T13:04:30.433Z,8.34
2022-12-20T13:06:57.209Z,8.37
2022-12-20T13:09:19.198Z,8.40
2022-12-20T13:11:31.685Z,8.43
2022-12-20T13:13:34.818Z,8.48
2022-12-20T13:16:20.012Z,8.52
2022-12-20T13:18:28.418Z,8.54
2022-12-20T13:20:32.669Z,8.56
2022-12-20T13:22:35.858Z,8.57
2022-12-20T13:24:56.450Z,8.57
2022-12-20T13:27:00.623Z,8.59
2022-12-20T13:29:22.798Z,8.63
2022-12-20T13:31:33.798Z,8.65
2022-12-20T13:33:43.015Z,8.67
2022-12-20T13:35:56.293Z,8.67
2022-12-20T13:38:04.669Z,8.70
2022-12-20T13:40:19.978Z,8.71
2022-12-20T13:42:34.687Z,8.66
2022-12-20T13:44:42.839Z,8.65
2022-12-20T13:47:02.944Z,8.65
2022-12-20T13:49:11.747Z,8.65
2022-12-20T13:51:17.851Z,8.67
2022-12-20T13:53:22.752Z,8.67
2022-12-20T13:55:35.761Z,8.68
2022-12-20T13:58:13.857Z,8.69
2022-12-20T14:00:20.053Z,8.68
2022-12-20T14:02:43.388Z,8.68
2022-12-20T14:04:57.242Z,8.68
2022-12-20T14:07:02.204Z,8.67
2022-12-20T14:09:05.837Z,8.67
2022-12-20T14:11:11.294Z,8.67
2022-12-20T14:13:22.876Z,8.68
2022-12-20T14:15:29.037Z,8.71
2022-12-20T14:17:35.700Z,8.72
2022-12-20T14:19:41.879Z,8.74
2022-12-20T14:21:47.822Z,8.76
2022-12-20T14:23:52.838Z,8.75
2022-12-20T14:25:58.186Z,8.75
2022-12-20T14:28:01.550Z,8.74
2022-12-20T14:30:05.687Z,8.75
2022-12-20T14:32:19.355Z,8.76
2022-12-20T14:34:29.476Z,8.75
2022-12-20T14:36:36.240Z,8.74
2022-12-20T14:38:41.669Z,8.75
2022-12-20T14:40:48.943Z,8.76
2022-12-20T14:42:55.514Z,8.71
2022-12-20T14:45:05.006Z,8.71
2022-12-20T14:47:16.624Z,8.68
2022-12-20T14:49:23.627Z,8.69
2022-12-20T14:51:26.851Z,8.68
2022-12-20T14:53:30.364Z,8.66
2022-12-20T14:55:37.589Z,8.65
2022-12-20T14:57:48.452Z,8.64
2022-12-20T15:00:00.839Z,8.63
2022-12-20T15:02:38.022Z,8.62
2022-12-20T15:04:41.460Z,8.60
2022-12-20T15:06:45.775Z,8.60
2022-12-20T15:08:48.934Z,8.60
2022-12-20T15:10:55.934Z,8.60
2022-12-20T15:12:59.004Z,8.61
2022-12-20T15:15:23.959Z,8.61
2022-12-20T15:17:25.638Z,8.60
2022-12-20T15:19:28.881Z,8.59
2022-12-20T15:21:33.663Z,8.58
2022-12-20T15:23:37.041Z,8.58
2022-12-20T15:25:43.300Z,8.59
2022-12-20T15:27:48.641Z,8.58
2022-12-20T15:29:51.717Z,8.56
2022-12-20T15:32:01.807Z,8.55
2022-12-20T15:34:05.912Z,8.53
2022-12-20T15:36:15.169Z,8.51
2022-12-20T15:38:34.620Z,8.50
2022-12-20T15:40:44.173Z,8.45
2022-12-20T15:42:48.569Z,8.42
2022-12-20T15:44:51.874Z,8.42
2022-12-20T15:46:55.105Z,8.42
2022-12-20T15:48:59.528Z,8.41
2022-12-20T15:51:02.563Z,8.39
2022-12-20T15:53:05.747Z,8.41
2022-12-20T15:55:11.802Z,8.41
2022-12-20T15:57:15.918Z,8.40
2022-12-20T15:59:57.629Z,8.41
2022-12-20T16:01:43.671Z,8.40
2022-12-20T16:03:47.466Z,8.39
2022-12-20T16:05:51.245Z,8.37
2022-12-20T16:07:54.343Z,8.35
2022-12-20T16:09:57.548Z,8.33
2022-12-20T16:12:00.935Z,8.34
2022-12-20T16:14:04.237Z,8.33
2022-12-20T16:16:13.879Z,8.31
2022-12-20T16:18:17.225Z,8.29
2022-12-20T16:20:20.456Z,8.31
2022-12-20T16:22:26.134Z,8.29
2022-12-20T16:24:29.263Z,8.27
2022-12-20T16:26:32.284Z,8.26
2022-12-20T16:28:35.340Z,8.24
2022-12-20T16:30:38.354Z,8.24
2022-12-20T16:32:42.890Z,8.23
2022-12-20T16:34:46.698Z,8.19
2022-12-20T16:36:49.743Z,8.18
2022-12-20T16:38:53.943Z,8.17
2022-12-20T16:40:56.927Z,8.13
2022-12-20T16:43:00.810Z,8.12
2022-12-20T16:45:03.861Z,8.12
2022-12-20T16:47:07.148Z,8.12
2022-12-20T16:49:19.775Z,8.11
2022-12-20T16:51:25.611Z,8.11
2022-12-20T16:53:34.495Z,8.10
2022-12-20T16:55:51.451Z,8.09
2022-12-20T16:57:54.625Z,8.07
2022-12-20T16:59:58.335Z,8.06
2022-12-20T17:02:01.887Z,8.03
2022-12-20T17:04:06.790Z,8.02
2022-12-20T17:06:12.426Z,7.97
2022-12-20T17:10:36.622Z,7.94
2022-12-20T17:12:39.743Z,7.89
2022-12-20T17:14:42.956Z,7.81
2022-12-20T17:16:46.009Z,7.77
2022-12-20T17:18:51.135Z,7.80
2022-12-20T17:20:54.181Z,7.81
2022-12-20T17:25:25.268Z,7.77
2022-12-20T17:27:29.085Z,7.77
2022-12-20T17:29:32.135Z,7.74
2022-12-20T17:31:39.084Z,7.76
2022-12-20T17:33:42.259Z,7.79
2022-12-20T17:35:45.237Z,7.82
2022-12-20T17:37:48.705Z,7.83
2022-12-20T17:39:53.143Z,7.86
2022-12-20T17:41:56.720Z,7.89
2022-12-20T17:44:00.551Z,7.93
2022-12-20T17:46:03.604Z,7.96
2022-12-20T17:48:07.302Z,7.98
2022-12-20T17:50:10.832Z,8.03
2022-12-20T17:52:15.473Z,8.04
2022-12-20T17:54:20.317Z,8.05
2022-12-20T17:56:26.523Z,8.02
2022-12-20T17:58:29.556Z,8.00
2022-12-20T18:00:38.826Z,7.99
2022-12-20T18:02:42.682Z,8.03
2022-12-20T18:04:47.181Z,8.05
2022-12-20T18:06:50.483Z,8.05
2022-12-20T18:08:54.652Z,8.03
2022-12-20T18:10:59.227Z,8.04
2022-12-20T18:13:03.819Z,8.05
2022-12-20T18:15:10.136Z,8.05
2022-12-20T18:17:13.354Z,8.05
2022-12-20T18:19:17.862Z,8.05
2022-12-20T18:21:21.786Z,8.02
2022-12-20T18:23:25.009Z,7.98
2022-12-20T18:25:30.411Z,7.98
2022-12-20T18:27:37.464Z,7.96
2022-12-20T18:29:42.057Z,7.94
2022-12-20T18:31:45.439Z,7.91
2022-12-20T18:33:55.611Z,7.88
2022-12-20T18:36:04.609Z,7.84
2022-12-20T18:38:07.964Z,7.80
2022-12-20T18:40:11.901Z,7.78
2022-12-20T18:42:15.040Z,7.75
2022-12-20T18:44:18.144Z,7.73
2022-12-20T18:46:23.615Z,7.71
2022-12-20T18:48:26.789Z,7.68
2022-12-20T18:50:29.961Z,7.66
2022-12-20T18:52:33.061Z,7.61
2022-12-20T18:54:36.163Z,7.57
2022-12-20T18:56:39.706Z,7.52
2022-12-20T18:58:43.047Z,7.49
2022-12-20T19:00:46.229Z,7.48
2022-12-20T19:02:51.349Z,7.46
2022-12-20T19:04:54.547Z,7.45
2022-12-20T19:06:57.708Z,7.46
2022-12-20T19:09:01.111Z,7.46
2022-12-20T19:11:07.760Z,7.46
2022-12-20T19:13:10.846Z,7.46
2022-12-20T19:15:14.566Z,7.45
2022-12-20T19:17:17.693Z,7.46
2022-12-20T19:19:22.307Z,7.46
2022-12-20T19:21:26.615Z,7.47
2022-12-20T19:23:29.752Z,7.49
2022-12-20T19:25:35.402Z,7.49
2022-12-20T19:27:38.592Z,7.49
2022-12-20T19:29:41.678Z,7.50
2022-12-20T19:31:44.981Z,7.50
2022-12-20T19:33:48.948Z,7.50
2022-12-20T19:35:55.805Z,7.50
2022-12-20T19:37:59.616Z,7.48
2022-12-20T19:40:02.987Z,7.46
2022-12-20T19:44:29.922Z,7.43
2022-12-20T19:46:33.810Z,7.46
2022-12-20T19:48:37.262Z,7.46
2022-12-20T19:50:40.398Z,7.45
2022-12-20T19:52:44.891Z,7.45
2022-12-20T19:54:48.601Z,7.45
2022-12-20T19:56:53.015Z,7.45
2022-12-20T19:58:56.645Z,7.44
2022-12-20T20:00:59.984Z,7.44
2022-12-20T20:03:03.210Z,7.40
2022-12-20T20:05:14.516Z,7.37
2022-12-20T20:07:18.184Z,7.37
2022-12-20T20:09:23.111Z,7.36
2022-12-20T20:11:27.468Z,7.35
2022-12-20T20:13:48.321Z,7.35
2022-12-20T20:15:52.531Z,7.35
2022-12-20T20:17:56.098Z,7.33
2022-12-20T20:19:59.250Z,7.33
2022-12-20T20:22:02.256Z,7.35
2022-12-20T20:24:09.735Z,7.36
2022-12-20T20:26:16.583Z,7.37
2022-12-20T20:28:19.821Z,7.39
2022-12-20T20:30:22.887Z,7.37
2022-12-20T20:32:26.027Z,7.36
2022-12-20T20:34:29.270Z,7.40
2022-12-20T20:36:38.159Z,7.40
2022-12-20T20:39:13.420Z,7.40
2022-12-20T20:41:18.027Z,7.43
2022-12-20T20:43:22.032Z,7.43
2022-12-20T20:45:25.317Z,7.45
2022-12-20T20:47:28.456Z,7.43
2022-12-20T20:49:31.701Z,7.41
2022-12-20T20:51:34.945Z,7.39
2022-12-20T20:53:38.398Z,7.32
2022-12-20T20:55:41.836Z,7.30
2022-12-20T20:57:46.373Z,7.33
2022-12-20T20:59:49.770Z,7.32
2022-12-20T21:01:53.573Z,7.33
2022-12-20T21:03:57.736Z,7.34
2022-12-20T21:08:24.229Z,7.39
2022-12-20T21:10:28.088Z,7.39
2022-12-20T21:12:31.571Z,7.40
2022-12-20T21:15:20.048Z,7.37
2022-12-20T21:16:59.853Z,7.38
2022-12-20T21:19:03.019Z,7.41
2022-12-20T21:21:08.411Z,7.41
2022-12-20T21:23:12.473Z,7.42
2022-12-20T21:25:15.840Z,7.41
2022-12-20T21:27:19.910Z,7.38
2022-12-20T21:29:24.042Z,7.36
2022-12-20T21:31:29.222Z,7.39
2022-12-20T21:33:32.881Z,7.39
2022-12-20T21:35:36.037Z,7.39
2022-12-20T21:37:39.257Z,7.39
2022-12-20T21:39:42.433Z,7.44
2022-12-20T21:41:45.472Z,7.44
2022-12-20T21:43:48.593Z,7.46
2022-12-20T21:45:54.394Z,7.45
2022-12-20T21:48:03.093Z,7.46
2022-12-20T21:50:08.166Z,7.45
2022-12-20T21:52:11.244Z,7.44
2022-12-20T21:54:14.448Z,7.51
2022-12-20T21:56:18.291Z,7.44
2022-12-20T21:58:22.076Z,7.41
2022-12-20T22:00:25.295Z,7.40
2022-12-20T22:02:29.080Z,7.39
2022-12-20T22:04:34.497Z,7.37
2022-12-20T22:06:37.598Z,7.36
2022-12-20T22:08:40.811Z,7.36
2022-12-20T22:10:44.266Z,7.37
2022-12-20T22:12:47.297Z,7.38
2022-12-20T22:14:50.374Z,7.38
2022-12-20T22:16:54.659Z,7.35
2022-12-20T22:19:05.615Z,7.34
2022-12-20T22:21:12.036Z,7.32
2022-12-20T22:23:15.625Z,7.30
2022-12-20T22:25:18.635Z,7.32
2022-12-20T22:27:21.697Z,7.33
2022-12-20T22:29:24.736Z,7.33
2022-12-20T22:31:28.755Z,7.33
2022-12-20T22:33:31.896Z,7.34
2022-12-20T22:35:35.658Z,7.34
2022-12-20T22:37:40.572Z,7.36
2022-12-20T22:39:43.692Z,7.36
2022-12-20T22:41:47.203Z,7.36
2022-12-20T22:43:50.801Z,7.38
2022-12-20T22:45:58.301Z,7.37
2022-12-20T22:48:01.460Z,7.38
2022-12-20T22:50:05.212Z,7.37
2022-12-20T22:52:08.877Z,7.38
2022-12-20T22:54:13.339Z,7.38
2022-12-20T22:56:17.210Z,7.40
2022-12-20T22:58:20.276Z,7.41
2022-12-20T23:00:23.487Z,7.41
2022-12-20T23:02:27.002Z,7.42
2022-12-20T23:04:30.414Z,7.41
2022-12-20T23:06:33.448Z,7.36
2022-12-20T23:08:37.750Z,7.37
2022-12-20T23:10:59.667Z,7.30
2022-12-20T23:13:20.063Z,7.28
2022-12-20T23:15:41.278Z,7.26
2022-12-20T23:17:44.464Z,7.26
2022-12-20T23:20:05.113Z,7.27
2022-12-20T23:22:36.339Z,7.27
2022-12-20T23:24:39.430Z,7.25
2022-12-20T23:26:44.551Z,7.25
2022-12-20T23:28:47.770Z,7.24
2022-12-20T23:30:50.796Z,7.24
2022-12-20T23:32:56.188Z,7.25
2022-12-20T23:34:59.470Z,7.27
2022-12-20T23:37:02.496Z,7.28
2022-12-20T23:39:05.868Z,7.30
2022-12-20T23:41:09.658Z,7.31
2022-12-20T23:43:14.036Z,7.29
2022-12-20T23:45:17.225Z,7.29
2022-12-20T23:47:20.700Z,7.29
2022-12-20T23:49:23.909Z,7.31
2022-12-20T23:51:27.259Z,7.32
2022-12-20T23:53:31.403Z,7.35
2022-12-20T23:55:34.545Z,7.35
2022-12-20T23:57:37.671Z,7.35
2022-12-20T23:59:42.272Z,7.36
